sensor_id;sensor_type;location;lat;lon;timestamp;P1;durP1;ratioP1;P2;durP2;ratioP2
12356;SDS011;6243;51.244;6.774;2022-11-20T00:01:39;16.77;;;11.47;;
12356;SDS011;6243;51.244;6.774;2022-11-20T00:04:04;16.23;;;12.20;;
12356;SDS011;6243;51.244;6.774;2022-11-20T00:06:30;13.60;;;10.97;;
12356;SDS011;6243;51.244;6.774;2022-11-20T00:08:56;16.03;;;12.03;;
12356;SDS011;6243;51.244;6.774;2022-11-20T00:11:24;15.30;;;12.10;;
12356;SDS011;6243;51.244;6.774;2022-11-20T00:13:51;16.20;;;11.83;;
12356;SDS011;6243;51.244;6.774;2022-11-20T00:16:19;13.83;;;11.80;;
12356;SDS011;6243;51.244;6.774;2022-11-20T00:18:47;14.53;;;11.70;;
12356;SDS011;6243;51.244;6.774;2022-11-20T00:21:13;16.17;;;12.27;;
12356;SDS011;6243;51.244;6.774;2022-11-20T00:23:40;13.37;;;11.70;;
12356;SDS011;6243;51.244;6.774;2022-11-20T00:26:07;13.53;;;11.43;;
12356;SDS011;6243;51.244;6.774;2022-11-20T00:28:34;16.50;;;11.97;;
12356;SDS011;6243;51.244;6.774;2022-11-20T00:31:01;14.90;;;12.17;;
12356;SDS011;6243;51.244;6.774;2022-11-20T00:33:27;14.63;;;11.57;;
12356;SDS011;6243;51.244;6.774;2022-11-20T00:35:56;12.57;;;11.00;;
12356;SDS011;6243;51.244;6.774;2022-11-20T00:38:24;16.27;;;12.10;;
12356;SDS011;6243;51.244;6.774;2022-11-20T00:40:54;14.80;;;11.57;;
12356;SDS011;6243;51.244;6.774;2022-11-20T00:43:20;16.77;;;12.00;;
12356;SDS011;6243;51.244;6.774;2022-11-20T00:45:46;15.07;;;12.07;;
12356;SDS011;6243;51.244;6.774;2022-11-20T00:48:11;16.80;;;12.27;;
12356;SDS011;6243;51.244;6.774;2022-11-20T00:50:37;16.47;;;12.47;;
12356;SDS011;6243;51.244;6.774;2022-11-20T00:53:04;15.83;;;12.30;;
12356;SDS011;6243;51.244;6.774;2022-11-20T00:55:29;15.37;;;11.77;;
12356;SDS011;6243;51.244;6.774;2022-11-20T00:57:55;15.97;;;12.27;;
12356;SDS011;6243;51.244;6.774;2022-11-20T01:00:21;14.40;;;12.03;;
12356;SDS011;6243;51.244;6.774;2022-11-20T01:02:46;15.93;;;11.60;;
12356;SDS011;6243;51.244;6.774;2022-11-20T01:05:12;14.47;;;12.30;;
12356;SDS011;6243;51.244;6.774;2022-11-20T01:07:37;14.13;;;11.67;;
12356;SDS011;6243;51.244;6.774;2022-11-20T01:10:05;15.07;;;11.90;;
12356;SDS011;6243;51.244;6.774;2022-11-20T01:12:31;14.10;;;11.57;;
12356;SDS011;6243;51.244;6.774;2022-11-20T01:14:56;13.67;;;11.63;;
12356;SDS011;6243;51.244;6.774;2022-11-20T01:17:22;13.47;;;11.77;;
12356;SDS011;6243;51.244;6.774;2022-11-20T01:19:48;16.53;;;13.00;;
12356;SDS011;6243;51.244;6.774;2022-11-20T01:22:14;14.80;;;12.97;;
12356;SDS011;6243;51.244;6.774;2022-11-20T01:24:39;16.93;;;12.83;;
12356;SDS011;6243;51.244;6.774;2022-11-20T01:27:06;16.03;;;12.20;;
12356;SDS011;6243;51.244;6.774;2022-11-20T01:29:32;16.27;;;12.03;;
12356;SDS011;6243;51.244;6.774;2022-11-20T01:31:57;15.43;;;12.27;;
12356;SDS011;6243;51.244;6.774;2022-11-20T01:34:23;16.50;;;12.70;;
12356;SDS011;6243;51.244;6.774;2022-11-20T01:36:50;15.70;;;12.53;;
12356;SDS011;6243;51.244;6.774;2022-11-20T01:39:17;17.17;;;11.80;;
12356;SDS011;6243;51.244;6.774;2022-11-20T01:41:44;14.93;;;12.47;;
12356;SDS011;6243;51.244;6.774;2022-11-20T01:44:12;15.63;;;12.00;;
12356;SDS011;6243;51.244;6.774;2022-11-20T01:46:39;16.53;;;12.90;;
12356;SDS011;6243;51.244;6.774;2022-11-20T01:49:08;14.67;;;11.77;;
12356;SDS011;6243;51.244;6.774;2022-11-20T01:51:41;17.73;;;12.87;;
12356;SDS011;6243;51.244;6.774;2022-11-20T01:54:09;14.97;;;12.13;;
12356;SDS011;6243;51.244;6.774;2022-11-20T01:56:40;14.53;;;12.23;;
12356;SDS011;6243;51.244;6.774;2022-11-20T01:59:09;15.70;;;12.03;;
12356;SDS011;6243;51.244;6.774;2022-11-20T02:01:39;16.70;;;12.70;;
12356;SDS011;6243;51.244;6.774;2022-11-20T02:04:04;15.90;;;12.87;;
12356;SDS011;6243;51.244;6.774;2022-11-20T02:06:32;16.63;;;12.87;;
12356;SDS011;6243;51.244;6.774;2022-11-20T02:09:02;15.40;;;11.87;;
12356;SDS011;6243;51.244;6.774;2022-11-20T02:11:29;15.30;;;12.10;;
12356;SDS011;6243;51.244;6.774;2022-11-20T02:13:55;15.17;;;12.20;;
12356;SDS011;6243;51.244;6.774;2022-11-20T02:16:23;13.50;;;11.47;;
12356;SDS011;6243;51.244;6.774;2022-11-20T02:18:50;15.23;;;12.27;;
12356;SDS011;6243;51.244;6.774;2022-11-20T02:21:28;15.57;;;12.50;;
12356;SDS011;6243;51.244;6.774;2022-11-20T02:24:02;14.83;;;12.30;;
12356;SDS011;6243;51.244;6.774;2022-11-20T02:26:31;15.20;;;12.10;;
12356;SDS011;6243;51.244;6.774;2022-11-20T02:28:59;15.67;;;12.37;;
12356;SDS011;6243;51.244;6.774;2022-11-20T02:31:26;17.20;;;12.60;;
12356;SDS011;6243;51.244;6.774;2022-11-20T02:33:54;14.37;;;12.00;;
12356;SDS011;6243;51.244;6.774;2022-11-20T02:36:20;14.47;;;11.60;;
12356;SDS011;6243;51.244;6.774;2022-11-20T02:38:46;15.00;;;11.93;;
12356;SDS011;6243;51.244;6.774;2022-11-20T02:41:15;15.63;;;12.77;;
12356;SDS011;6243;51.244;6.774;2022-11-20T02:43:41;16.20;;;12.33;;
12356;SDS011;6243;51.244;6.774;2022-11-20T02:46:06;15.90;;;13.07;;
12356;SDS011;6243;51.244;6.774;2022-11-20T02:48:32;15.77;;;11.90;;
12356;SDS011;6243;51.244;6.774;2022-11-20T02:50:57;15.57;;;13.17;;
12356;SDS011;6243;51.244;6.774;2022-11-20T02:53:23;17.10;;;12.93;;
12356;SDS011;6243;51.244;6.774;2022-11-20T02:55:48;16.93;;;12.00;;
12356;SDS011;6243;51.244;6.774;2022-11-20T02:58:15;15.90;;;12.50;;
12356;SDS011;6243;51.244;6.774;2022-11-20T03:00:40;15.43;;;12.77;;
12356;SDS011;6243;51.244;6.774;2022-11-20T03:03:06;14.80;;;11.87;;
12356;SDS011;6243;51.244;6.774;2022-11-20T03:05:31;16.60;;;12.43;;
12356;SDS011;6243;51.244;6.774;2022-11-20T03:07:57;17.37;;;12.33;;
12356;SDS011;6243;51.244;6.774;2022-11-20T03:10:22;14.40;;;11.70;;
12356;SDS011;6243;51.244;6.774;2022-11-20T03:12:52;17.47;;;12.37;;
12356;SDS011;6243;51.244;6.774;2022-11-20T03:15:19;16.90;;;12.33;;
12356;SDS011;6243;51.244;6.774;2022-11-20T03:17:45;14.27;;;11.30;;
12356;SDS011;6243;51.244;6.774;2022-11-20T03:20:10;14.93;;;11.70;;
12356;SDS011;6243;51.244;6.774;2022-11-20T03:22:36;14.70;;;11.83;;
12356;SDS011;6243;51.244;6.774;2022-11-20T03:25:02;14.60;;;11.87;;
12356;SDS011;6243;51.244;6.774;2022-11-20T03:27:31;16.10;;;12.50;;
12356;SDS011;6243;51.244;6.774;2022-11-20T03:29:57;14.33;;;11.33;;
12356;SDS011;6243;51.244;6.774;2022-11-20T03:32:24;15.33;;;12.57;;
12356;SDS011;6243;51.244;6.774;2022-11-20T03:34:49;15.93;;;11.27;;
12356;SDS011;6243;51.244;6.774;2022-11-20T03:37:15;14.40;;;11.93;;
12356;SDS011;6243;51.244;6.774;2022-11-20T03:39:40;16.07;;;12.07;;
12356;SDS011;6243;51.244;6.774;2022-11-20T03:42:06;15.43;;;12.13;;
12356;SDS011;6243;51.244;6.774;2022-11-20T03:44:33;15.80;;;11.50;;
12356;SDS011;6243;51.244;6.774;2022-11-20T03:46:58;14.73;;;11.90;;
12356;SDS011;6243;51.244;6.774;2022-11-20T03:49:25;16.00;;;12.27;;
12356;SDS011;6243;51.244;6.774;2022-11-20T03:51:51;14.40;;;11.50;;
12356;SDS011;6243;51.244;6.774;2022-11-20T03:54:16;16.50;;;12.83;;
12356;SDS011;6243;51.244;6.774;2022-11-20T03:56:42;13.80;;;11.83;;
12356;SDS011;6243;51.244;6.774;2022-11-20T03:59:09;15.57;;;11.93;;
12356;SDS011;6243;51.244;6.774;2022-11-20T04:01:35;16.87;;;12.67;;
12356;SDS011;6243;51.244;6.774;2022-11-20T04:04:01;15.23;;;12.37;;
12356;SDS011;6243;51.244;6.774;2022-11-20T04:06:29;17.70;;;12.57;;
12356;SDS011;6243;51.244;6.774;2022-11-20T04:08:58;15.83;;;12.40;;
12356;SDS011;6243;51.244;6.774;2022-11-20T04:11:24;14.97;;;11.73;;
12356;SDS011;6243;51.244;6.774;2022-11-20T04:13:51;18.33;;;12.97;;
12356;SDS011;6243;51.244;6.774;2022-11-20T04:16:17;17.90;;;13.27;;
12356;SDS011;6243;51.244;6.774;2022-11-20T04:18:44;16.77;;;12.77;;
12356;SDS011;6243;51.244;6.774;2022-11-20T04:21:09;16.87;;;12.47;;
12356;SDS011;6243;51.244;6.774;2022-11-20T04:23:37;18.63;;;12.50;;
12356;SDS011;6243;51.244;6.774;2022-11-20T04:26:03;16.40;;;13.20;;
12356;SDS011;6243;51.244;6.774;2022-11-20T04:28:29;18.03;;;13.67;;
12356;SDS011;6243;51.244;6.774;2022-11-20T04:31:01;17.60;;;12.33;;
12356;SDS011;6243;51.244;6.774;2022-11-20T04:33:28;22.17;;;14.10;;
12356;SDS011;6243;51.244;6.774;2022-11-20T04:35:53;19.53;;;13.47;;
12356;SDS011;6243;51.244;6.774;2022-11-20T04:38:19;16.60;;;13.07;;
12356;SDS011;6243;51.244;6.774;2022-11-20T04:40:45;17.50;;;13.40;;
12356;SDS011;6243;51.244;6.774;2022-11-20T04:43:11;18.27;;;13.80;;
12356;SDS011;6243;51.244;6.774;2022-11-20T04:45:36;17.53;;;14.03;;
12356;SDS011;6243;51.244;6.774;2022-11-20T04:48:02;17.23;;;13.23;;
12356;SDS011;6243;51.244;6.774;2022-11-20T04:50:28;17.70;;;14.17;;
12356;SDS011;6243;51.244;6.774;2022-11-20T04:52:53;17.70;;;13.20;;
12356;SDS011;6243;51.244;6.774;2022-11-20T04:55:19;16.40;;;13.30;;
12356;SDS011;6243;51.244;6.774;2022-11-20T04:57:45;16.80;;;12.90;;
12356;SDS011;6243;51.244;6.774;2022-11-20T05:00:15;18.67;;;14.80;;
12356;SDS011;6243;51.244;6.774;2022-11-20T05:02:41;17.10;;;12.87;;
12356;SDS011;6243;51.244;6.774;2022-11-20T05:05:06;16.23;;;12.87;;
12356;SDS011;6243;51.244;6.774;2022-11-20T05:07:33;17.03;;;13.07;;
12356;SDS011;6243;51.244;6.774;2022-11-20T05:09:58;21.03;;;14.57;;
12356;SDS011;6243;51.244;6.774;2022-11-20T05:12:24;18.57;;;13.67;;
12356;SDS011;6243;51.244;6.774;2022-11-20T05:14:50;17.50;;;13.93;;
12356;SDS011;6243;51.244;6.774;2022-11-20T05:17:16;18.03;;;12.77;;
12356;SDS011;6243;51.244;6.774;2022-11-20T05:19:41;17.20;;;13.57;;
12356;SDS011;6243;51.244;6.774;2022-11-20T05:22:07;17.80;;;13.30;;
12356;SDS011;6243;51.244;6.774;2022-11-20T05:24:32;20.17;;;14.53;;
12356;SDS011;6243;51.244;6.774;2022-11-20T05:26:58;18.10;;;13.80;;
12356;SDS011;6243;51.244;6.774;2022-11-20T05:29:23;18.17;;;13.60;;
12356;SDS011;6243;51.244;6.774;2022-11-20T05:31:50;19.43;;;14.10;;
12356;SDS011;6243;51.244;6.774;2022-11-20T05:34:16;16.30;;;12.80;;
12356;SDS011;6243;51.244;6.774;2022-11-20T05:36:41;18.80;;;14.17;;
12356;SDS011;6243;51.244;6.774;2022-11-20T05:39:07;17.37;;;13.00;;
12356;SDS011;6243;51.244;6.774;2022-11-20T05:41:33;18.23;;;13.83;;
12356;SDS011;6243;51.244;6.774;2022-11-20T05:43:58;18.03;;;13.20;;
12356;SDS011;6243;51.244;6.774;2022-11-20T05:46:24;18.10;;;14.90;;
12356;SDS011;6243;51.244;6.774;2022-11-20T05:48:51;19.43;;;14.73;;
12356;SDS011;6243;51.244;6.774;2022-11-20T05:51:17;18.77;;;13.93;;
12356;SDS011;6243;51.244;6.774;2022-11-20T05:53:44;18.87;;;14.20;;
12356;SDS011;6243;51.244;6.774;2022-11-20T05:56:10;19.00;;;14.23;;
12356;SDS011;6243;51.244;6.774;2022-11-20T05:58:37;19.90;;;14.53;;
12356;SDS011;6243;51.244;6.774;2022-11-20T06:01:04;18.93;;;14.93;;
12356;SDS011;6243;51.244;6.774;2022-11-20T06:03:30;19.20;;;13.73;;
12356;SDS011;6243;51.244;6.774;2022-11-20T06:05:58;17.43;;;13.70;;
12356;SDS011;6243;51.244;6.774;2022-11-20T06:08:23;18.33;;;14.47;;
12356;SDS011;6243;51.244;6.774;2022-11-20T06:10:49;18.50;;;14.53;;
12356;SDS011;6243;51.244;6.774;2022-11-20T06:13:14;19.33;;;14.43;;
12356;SDS011;6243;51.244;6.774;2022-11-20T06:15:40;21.03;;;13.60;;
12356;SDS011;6243;51.244;6.774;2022-11-20T06:18:05;20.03;;;14.43;;
12356;SDS011;6243;51.244;6.774;2022-11-20T06:20:30;19.80;;;14.77;;
12356;SDS011;6243;51.244;6.774;2022-11-20T06:22:57;20.00;;;14.67;;
12356;SDS011;6243;51.244;6.774;2022-11-20T06:25:23;17.43;;;13.30;;
12356;SDS011;6243;51.244;6.774;2022-11-20T06:27:49;19.10;;;13.53;;
12356;SDS011;6243;51.244;6.774;2022-11-20T06:30:14;18.70;;;14.67;;
12356;SDS011;6243;51.244;6.774;2022-11-20T06:32:40;18.43;;;13.70;;
12356;SDS011;6243;51.244;6.774;2022-11-20T06:35:06;20.13;;;14.13;;
12356;SDS011;6243;51.244;6.774;2022-11-20T06:37:32;18.20;;;14.20;;
12356;SDS011;6243;51.244;6.774;2022-11-20T06:39:59;17.37;;;13.83;;
12356;SDS011;6243;51.244;6.774;2022-11-20T06:42:25;18.37;;;14.17;;
12356;SDS011;6243;51.244;6.774;2022-11-20T06:44:50;17.80;;;14.27;;
12356;SDS011;6243;51.244;6.774;2022-11-20T06:47:16;19.43;;;14.10;;
12356;SDS011;6243;51.244;6.774;2022-11-20T06:49:41;19.27;;;13.77;;
12356;SDS011;6243;51.244;6.774;2022-11-20T06:52:07;21.13;;;14.77;;
12356;SDS011;6243;51.244;6.774;2022-11-20T06:54:32;18.93;;;14.13;;
12356;SDS011;6243;51.244;6.774;2022-11-20T06:56:59;17.37;;;13.37;;
12356;SDS011;6243;51.244;6.774;2022-11-20T06:59:24;16.27;;;13.33;;
12356;SDS011;6243;51.244;6.774;2022-11-20T07:01:50;18.80;;;13.47;;
12356;SDS011;6243;51.244;6.774;2022-11-20T07:04:15;17.93;;;13.90;;
12356;SDS011;6243;51.244;6.774;2022-11-20T07:06:41;17.97;;;14.67;;
12356;SDS011;6243;51.244;6.774;2022-11-20T07:09:06;18.53;;;14.13;;
12356;SDS011;6243;51.244;6.774;2022-11-20T07:11:32;19.67;;;14.03;;
12356;SDS011;6243;51.244;6.774;2022-11-20T07:13:59;19.53;;;15.13;;
12356;SDS011;6243;51.244;6.774;2022-11-20T07:16:24;21.07;;;14.63;;
12356;SDS011;6243;51.244;6.774;2022-11-20T07:18:50;32.33;;;18.53;;
12356;SDS011;6243;51.244;6.774;2022-11-20T07:21:15;38.10;;;20.67;;
12356;SDS011;6243;51.244;6.774;2022-11-20T07:23:41;38.37;;;19.80;;
12356;SDS011;6243;51.244;6.774;2022-11-20T07:26:07;28.20;;;17.47;;
12356;SDS011;6243;51.244;6.774;2022-11-20T07:28:34;29.07;;;18.80;;
12356;SDS011;6243;51.244;6.774;2022-11-20T07:31:01;22.30;;;15.57;;
12356;SDS011;6243;51.244;6.774;2022-11-20T07:33:27;24.90;;;15.47;;
12356;SDS011;6243;51.244;6.774;2022-11-20T07:35:53;22.50;;;15.57;;
12356;SDS011;6243;51.244;6.774;2022-11-20T07:38:19;22.83;;;16.30;;
12356;SDS011;6243;51.244;6.774;2022-11-20T07:40:44;21.43;;;16.13;;
12356;SDS011;6243;51.244;6.774;2022-11-20T07:43:09;19.90;;;15.57;;
12356;SDS011;6243;51.244;6.774;2022-11-20T07:45:35;19.60;;;15.50;;
12356;SDS011;6243;51.244;6.774;2022-11-20T07:48:02;21.43;;;15.10;;
12356;SDS011;6243;51.244;6.774;2022-11-20T07:50:28;19.73;;;15.40;;
12356;SDS011;6243;51.244;6.774;2022-11-20T07:52:59;22.30;;;16.10;;
12356;SDS011;6243;51.244;6.774;2022-11-20T07:55:25;20.50;;;15.37;;
12356;SDS011;6243;51.244;6.774;2022-11-20T07:57:53;19.97;;;15.57;;
12356;SDS011;6243;51.244;6.774;2022-11-20T08:00:19;23.47;;;16.07;;
12356;SDS011;6243;51.244;6.774;2022-11-20T08:02:45;20.83;;;15.20;;
12356;SDS011;6243;51.244;6.774;2022-11-20T08:05:12;20.10;;;15.83;;
12356;SDS011;6243;51.244;6.774;2022-11-20T08:07:38;21.60;;;15.70;;
12356;SDS011;6243;51.244;6.774;2022-11-20T08:10:05;20.77;;;16.20;;
12356;SDS011;6243;51.244;6.774;2022-11-20T08:12:31;23.47;;;15.63;;
12356;SDS011;6243;51.244;6.774;2022-11-20T08:14:56;20.37;;;15.90;;
12356;SDS011;6243;51.244;6.774;2022-11-20T08:17:22;21.13;;;15.60;;
12356;SDS011;6243;51.244;6.774;2022-11-20T08:19:47;19.70;;;15.30;;
12356;SDS011;6243;51.244;6.774;2022-11-20T08:22:14;20.93;;;15.57;;
12356;SDS011;6243;51.244;6.774;2022-11-20T08:24:39;22.10;;;17.23;;
12356;SDS011;6243;51.244;6.774;2022-11-20T08:27:05;22.27;;;16.63;;
12356;SDS011;6243;51.244;6.774;2022-11-20T08:29:30;20.43;;;15.50;;
12356;SDS011;6243;51.244;6.774;2022-11-20T08:31:56;21.17;;;15.33;;
12356;SDS011;6243;51.244;6.774;2022-11-20T08:34:21;19.73;;;15.70;;
12356;SDS011;6243;51.244;6.774;2022-11-20T08:36:47;21.00;;;15.93;;
12356;SDS011;6243;51.244;6.774;2022-11-20T08:39:14;21.27;;;15.63;;
12356;SDS011;6243;51.244;6.774;2022-11-20T08:41:40;21.33;;;15.93;;
12356;SDS011;6243;51.244;6.774;2022-11-20T08:44:06;19.67;;;15.57;;
12356;SDS011;6243;51.244;6.774;2022-11-20T08:46:32;22.47;;;16.03;;
12356;SDS011;6243;51.244;6.774;2022-11-20T08:49:00;18.67;;;14.67;;
12356;SDS011;6243;51.244;6.774;2022-11-20T08:51:25;21.23;;;15.63;;
12356;SDS011;6243;51.244;6.774;2022-11-20T08:53:51;23.70;;;16.13;;
12356;SDS011;6243;51.244;6.774;2022-11-20T08:56:18;18.20;;;14.60;;
12356;SDS011;6243;51.244;6.774;2022-11-20T08:58:44;20.00;;;16.50;;
12356;SDS011;6243;51.244;6.774;2022-11-20T09:01:09;20.30;;;15.07;;
12356;SDS011;6243;51.244;6.774;2022-11-20T09:03:35;21.60;;;15.23;;
12356;SDS011;6243;51.244;6.774;2022-11-20T09:06:01;20.30;;;15.43;;
12356;SDS011;6243;51.244;6.774;2022-11-20T09:08:29;22.77;;;16.43;;
12356;SDS011;6243;51.244;6.774;2022-11-20T09:10:55;22.73;;;16.60;;
12356;SDS011;6243;51.244;6.774;2022-11-20T09:13:23;21.70;;;15.53;;
12356;SDS011;6243;51.244;6.774;2022-11-20T09:15:52;22.23;;;14.23;;
12356;SDS011;6243;51.244;6.774;2022-11-20T09:18:19;19.07;;;14.77;;
12356;SDS011;6243;51.244;6.774;2022-11-20T09:20:45;20.27;;;14.63;;
12356;SDS011;6243;51.244;6.774;2022-11-20T09:23:10;22.97;;;14.30;;
12356;SDS011;6243;51.244;6.774;2022-11-20T09:25:36;17.10;;;12.53;;
12356;SDS011;6243;51.244;6.774;2022-11-20T09:28:01;16.80;;;11.33;;
12356;SDS011;6243;51.244;6.774;2022-11-20T09:30:28;18.97;;;12.30;;
12356;SDS011;6243;51.244;6.774;2022-11-20T09:32:54;16.37;;;12.23;;
12356;SDS011;6243;51.244;6.774;2022-11-20T09:35:20;15.87;;;12.00;;
12356;SDS011;6243;51.244;6.774;2022-11-20T09:37:45;14.97;;;10.03;;
12356;SDS011;6243;51.244;6.774;2022-11-20T09:40:17;13.13;;;9.63;;
12356;SDS011;6243;51.244;6.774;2022-11-20T09:42:45;17.33;;;12.37;;
12356;SDS011;6243;51.244;6.774;2022-11-20T09:45:16;16.67;;;12.10;;
12356;SDS011;6243;51.244;6.774;2022-11-20T09:47:53;17.23;;;12.73;;
12356;SDS011;6243;51.244;6.774;2022-11-20T09:50:31;13.93;;;10.70;;
12356;SDS011;6243;51.244;6.774;2022-11-20T09:53:03;18.93;;;11.50;;
12356;SDS011;6243;51.244;6.774;2022-11-20T09:55:37;18.43;;;13.23;;
12356;SDS011;6243;51.244;6.774;2022-11-20T09:58:04;18.13;;;13.33;;
12356;SDS011;6243;51.244;6.774;2022-11-20T10:00:31;15.67;;;11.03;;
12356;SDS011;6243;51.244;6.774;2022-11-20T10:03:00;18.67;;;12.23;;
12356;SDS011;6243;51.244;6.774;2022-11-20T10:05:30;18.33;;;12.70;;
12356;SDS011;6243;51.244;6.774;2022-11-20T10:08:03;20.10;;;13.93;;
12356;SDS011;6243;51.244;6.774;2022-11-20T10:10:36;19.87;;;13.60;;
12356;SDS011;6243;51.244;6.774;2022-11-20T10:13:12;18.20;;;13.37;;
12356;SDS011;6243;51.244;6.774;2022-11-20T10:15:50;20.40;;;13.73;;
12356;SDS011;6243;51.244;6.774;2022-11-20T10:18:30;22.63;;;13.93;;
12356;SDS011;6243;51.244;6.774;2022-11-20T10:21:10;20.60;;;14.57;;
12356;SDS011;6243;51.244;6.774;2022-11-20T10:23:49;20.27;;;13.67;;
12356;SDS011;6243;51.244;6.774;2022-11-20T10:26:39;20.60;;;14.53;;
12356;SDS011;6243;51.244;6.774;2022-11-20T10:29:13;18.73;;;13.53;;
12356;SDS011;6243;51.244;6.774;2022-11-20T10:31:42;18.73;;;12.40;;
12356;SDS011;6243;51.244;6.774;2022-11-20T10:34:15;18.13;;;12.50;;
12356;SDS011;6243;51.244;6.774;2022-11-20T10:36:48;17.13;;;12.73;;
12356;SDS011;6243;51.244;6.774;2022-11-20T10:39:19;18.50;;;12.23;;
12356;SDS011;6243;51.244;6.774;2022-11-20T10:41:52;19.73;;;13.07;;
12356;SDS011;6243;51.244;6.774;2022-11-20T10:44:19;19.63;;;13.70;;
12356;SDS011;6243;51.244;6.774;2022-11-20T10:46:46;17.80;;;12.23;;
12356;SDS011;6243;51.244;6.774;2022-11-20T10:49:14;18.70;;;13.10;;
12356;SDS011;6243;51.244;6.774;2022-11-20T10:51:45;20.70;;;13.97;;
12356;SDS011;6243;51.244;6.774;2022-11-20T10:54:26;17.73;;;12.70;;
12356;SDS011;6243;51.244;6.774;2022-11-20T10:57:02;21.53;;;14.90;;
12356;SDS011;6243;51.244;6.774;2022-11-20T10:59:52;19.30;;;13.33;;
12356;SDS011;6243;51.244;6.774;2022-11-20T11:02:31;22.97;;;14.80;;
12356;SDS011;6243;51.244;6.774;2022-11-20T11:05:00;19.63;;;13.87;;
12356;SDS011;6243;51.244;6.774;2022-11-20T11:07:35;22.23;;;14.07;;
12356;SDS011;6243;51.244;6.774;2022-11-20T11:10:05;20.03;;;14.30;;
12356;SDS011;6243;51.244;6.774;2022-11-20T11:12:42;22.13;;;13.87;;
12356;SDS011;6243;51.244;6.774;2022-11-20T11:15:11;20.50;;;13.77;;
12356;SDS011;6243;51.244;6.774;2022-11-20T11:17:45;20.77;;;13.40;;
12356;SDS011;6243;51.244;6.774;2022-11-20T11:20:16;22.87;;;14.77;;
12356;SDS011;6243;51.244;6.774;2022-11-20T11:22:44;20.10;;;14.23;;
12356;SDS011;6243;51.244;6.774;2022-11-20T11:25:12;22.17;;;14.97;;
12356;SDS011;6243;51.244;6.774;2022-11-20T11:27:45;21.80;;;15.07;;
12356;SDS011;6243;51.244;6.774;2022-11-20T11:30:13;20.57;;;14.17;;
12356;SDS011;6243;51.244;6.774;2022-11-20T11:32:40;19.07;;;13.53;;
12356;SDS011;6243;51.244;6.774;2022-11-20T11:35:07;20.87;;;14.30;;
12356;SDS011;6243;51.244;6.774;2022-11-20T11:37:46;19.03;;;13.23;;
12356;SDS011;6243;51.244;6.774;2022-11-20T11:40:12;23.70;;;14.33;;
12356;SDS011;6243;51.244;6.774;2022-11-20T11:42:41;20.83;;;14.67;;
12356;SDS011;6243;51.244;6.774;2022-11-20T11:45:11;19.77;;;14.60;;
12356;SDS011;6243;51.244;6.774;2022-11-20T11:47:43;20.33;;;14.20;;
12356;SDS011;6243;51.244;6.774;2022-11-20T11:50:17;21.70;;;14.63;;
12356;SDS011;6243;51.244;6.774;2022-11-20T11:52:47;23.13;;;14.73;;
12356;SDS011;6243;51.244;6.774;2022-11-20T11:55:17;17.93;;;14.53;;
12356;SDS011;6243;51.244;6.774;2022-11-20T11:57:52;20.07;;;13.47;;
12356;SDS011;6243;51.244;6.774;2022-11-20T12:00:25;21.43;;;14.67;;
12356;SDS011;6243;51.244;6.774;2022-11-20T12:02:54;22.77;;;14.80;;
12356;SDS011;6243;51.244;6.774;2022-11-20T12:05:27;21.77;;;14.03;;
12356;SDS011;6243;51.244;6.774;2022-11-20T12:07:57;21.73;;;15.00;;
12356;SDS011;6243;51.244;6.774;2022-11-20T12:10:33;20.37;;;14.13;;
12356;SDS011;6243;51.244;6.774;2022-11-20T12:13:08;18.63;;;13.67;;
12356;SDS011;6243;51.244;6.774;2022-11-20T12:15:44;20.93;;;14.97;;
12356;SDS011;6243;51.244;6.774;2022-11-20T12:18:14;21.23;;;14.17;;
12356;SDS011;6243;51.244;6.774;2022-11-20T12:20:45;18.73;;;13.63;;
12356;SDS011;6243;51.244;6.774;2022-11-20T12:23:17;21.23;;;14.20;;
12356;SDS011;6243;51.244;6.774;2022-11-20T12:25:50;21.90;;;14.87;;
12356;SDS011;6243;51.244;6.774;2022-11-20T12:28:25;22.00;;;14.03;;
12356;SDS011;6243;51.244;6.774;2022-11-20T12:34:20;21.03;;;14.83;;
12356;SDS011;6243;51.244;6.774;2022-11-20T12:36:59;23.10;;;13.93;;
12356;SDS011;6243;51.244;6.774;2022-11-20T12:39:36;20.33;;;14.80;;
12356;SDS011;6243;51.244;6.774;2022-11-20T12:42:13;23.80;;;15.87;;
12356;SDS011;6243;51.244;6.774;2022-11-20T12:45:06;22.13;;;14.83;;
12356;SDS011;6243;51.244;6.774;2022-11-20T12:47:51;20.30;;;14.27;;
12356;SDS011;6243;51.244;6.774;2022-11-20T12:50:30;22.43;;;15.80;;
12356;SDS011;6243;51.244;6.774;2022-11-20T12:53:06;23.53;;;16.20;;
12356;SDS011;6243;51.244;6.774;2022-11-20T12:55:46;21.60;;;15.47;;
12356;SDS011;6243;51.244;6.774;2022-11-20T12:58:20;21.30;;;14.87;;
12356;SDS011;6243;51.244;6.774;2022-11-20T13:00:54;22.50;;;14.63;;
12356;SDS011;6243;51.244;6.774;2022-11-20T13:03:34;20.70;;;14.77;;
12356;SDS011;6243;51.244;6.774;2022-11-20T13:06:10;22.63;;;14.63;;
12356;SDS011;6243;51.244;6.774;2022-11-20T13:08:40;23.47;;;16.07;;
12356;SDS011;6243;51.244;6.774;2022-11-20T13:11:09;22.10;;;14.47;;
12356;SDS011;6243;51.244;6.774;2022-11-20T13:13:43;23.83;;;15.60;;
12356;SDS011;6243;51.244;6.774;2022-11-20T13:16:23;23.97;;;15.77;;
12356;SDS011;6243;51.244;6.774;2022-11-20T13:19:00;25.10;;;16.53;;
12356;SDS011;6243;51.244;6.774;2022-11-20T13:21:35;24.53;;;15.63;;
12356;SDS011;6243;51.244;6.774;2022-11-20T13:24:05;20.80;;;15.00;;
12356;SDS011;6243;51.244;6.774;2022-11-20T13:26:31;25.83;;;18.00;;
12356;SDS011;6243;51.244;6.774;2022-11-20T13:29:01;20.87;;;15.50;;
12356;SDS011;6243;51.244;6.774;2022-11-20T13:31:33;26.40;;;17.83;;
12356;SDS011;6243;51.244;6.774;2022-11-20T13:34:00;25.93;;;18.33;;
12356;SDS011;6243;51.244;6.774;2022-11-20T13:36:28;24.77;;;16.93;;
12356;SDS011;6243;51.244;6.774;2022-11-20T13:38:55;23.43;;;16.30;;
12356;SDS011;6243;51.244;6.774;2022-11-20T13:41:25;24.17;;;16.90;;
12356;SDS011;6243;51.244;6.774;2022-11-20T13:43:53;23.97;;;17.07;;
12356;SDS011;6243;51.244;6.774;2022-11-20T13:46:22;24.67;;;17.20;;
12356;SDS011;6243;51.244;6.774;2022-11-20T13:48:48;27.40;;;17.80;;
12356;SDS011;6243;51.244;6.774;2022-11-20T13:51:15;25.93;;;17.10;;
12356;SDS011;6243;51.244;6.774;2022-11-20T13:54:00;27.80;;;17.80;;
12356;SDS011;6243;51.244;6.774;2022-11-20T13:56:47;24.43;;;16.77;;
12356;SDS011;6243;51.244;6.774;2022-11-20T13:59:24;25.77;;;17.73;;
12356;SDS011;6243;51.244;6.774;2022-11-20T14:01:57;25.97;;;17.17;;
12356;SDS011;6243;51.244;6.774;2022-11-20T14:04:26;25.70;;;17.40;;
12356;SDS011;6243;51.244;6.774;2022-11-20T14:06:56;27.33;;;16.90;;
12356;SDS011;6243;51.244;6.774;2022-11-20T14:09:25;27.33;;;18.17;;
12356;SDS011;6243;51.244;6.774;2022-11-20T14:11:53;27.83;;;16.97;;
12356;SDS011;6243;51.244;6.774;2022-11-20T14:14:19;28.60;;;17.80;;
12356;SDS011;6243;51.244;6.774;2022-11-20T14:16:47;29.97;;;18.73;;
12356;SDS011;6243;51.244;6.774;2022-11-20T14:19:21;26.77;;;16.77;;
12356;SDS011;6243;51.244;6.774;2022-11-20T14:21:51;28.33;;;18.50;;
12356;SDS011;6243;51.244;6.774;2022-11-20T14:24:19;26.37;;;17.63;;
12356;SDS011;6243;51.244;6.774;2022-11-20T14:26:46;26.33;;;17.57;;
12356;SDS011;6243;51.244;6.774;2022-11-20T14:29:13;29.17;;;17.80;;
12356;SDS011;6243;51.244;6.774;2022-11-20T14:31:41;28.40;;;18.40;;
12356;SDS011;6243;51.244;6.774;2022-11-20T14:34:10;26.60;;;16.87;;
12356;SDS011;6243;51.244;6.774;2022-11-20T14:36:40;26.43;;;17.73;;
12356;SDS011;6243;51.244;6.774;2022-11-20T14:39:08;26.07;;;17.57;;
12356;SDS011;6243;51.244;6.774;2022-11-20T14:41:36;25.90;;;16.77;;
12356;SDS011;6243;51.244;6.774;2022-11-20T14:44:01;24.63;;;16.87;;